Flugplatz Biberach a.d. Riss (EDMB)

Hier findest Du alle Informationen zum Flugplatz Biberach a.d. Riss (EDMB).

Informationen für Piloten zum Flugplatz Biberach a.d. Riss

Hier findest Du alle relevanten Informationen, die Du als Pilot benötigst, um Biberach a.d. Riss anzufliegen.

Flugplatz: Biberach a.d. Riss ICAO-Code: EDMB
Frequenz Turm: 122,750 Mhz GAFOR Gebiet: 72
Frequenz Ground: 122,750 Mhz Mogas: ja
Platzrunde: NW 2700 ft Landegebühr: -
Platzhöhe: 1.903 ft Sunrise: 05:55 Uhr UTC
Pisten: 04/22 - 780 m x 28 m, ASPH Sunset: 17:10 Uhr UTC

Mitglieder, die in Biberach a.d. Riss fliegen

Flugwetter am Flugplatz Biberach a.d. Riss

Die METAR Information stammen aus EDNY (52.56 km entfernt).

METAR Code:
2024/02/29 17:20
EDNY 291720Z 28003KT CAVOK 08/04 Q1009

Flugschulen am Flugplatz Biberach a.d. Riss

Am Flugplatz Biberach a.d. Riss gibt es leider keine Flugschule.

Benachbarte Flugplätze und Flugschulen

Es gibt 21 weitere Flugplätze in einem Umkreis von 50 km um den Flugplatz Biberach a.d. Riss.

Jetzt anmelden

Passwort vergessen

Umfrage Archiv

Wie häufig haltet Ihr die Halbkreisflugregel ein?

Eher häufig!
34.9 %
Immer!
33 %
Hin und wieder!
15.3 %
Nie!
10 %
Eher selten!
6.7 %
Stimmen: 209 | Diskussion
Anzeige: Roland Aircraft
Statistik Alle Mitglieder

Aktuell sind 12 Besucher online, davon 2 Mitglieder und 10 Gäste.


Mitglieder online:
ronnski  xeon2345 

Anzeige: EasyVFR